NEDK1: Verdigris River, Neodesha Ks

Data processed at Fri Jul 07 2017 18:41


All information presented herein is the property of the government of the United States of America and may be revised or deleted at any time without prior notice.
Dissemination of this information without the expressed written consent of the Public Affairs Office, Tulsa District U.S. Army Corps of Engineers is strictly prohibited.
These data are gathered electronically and, as presented, have not undergone any form of quality control. These data are not guaranteed to be valid or correct.
Go to home page.
Go to station list.

Upstream stations:

Downstream station:
Previous Day
Next Day
Current Day
    
SHEF ID:       NEDK1     Verdigris River, Neodesha Ks
STATION TYPE:  

               PRECIP     STAGE  RIV-FLOW   VOLTAGE  BAT-LOAD
                   in        ft       cfs      volt      volt
              Ccp-Rev   Ccp-Rev   Ccp-Rev   Ccp-Rev   Ccp-Rev
(US/Central)
07/05 00:00      0.00     11.29       275     12.49     12.41
07/05 01:00      0.00     11.14       241     12.41     12.41
07/05 02:00      0.00     11.01       214     12.49     12.41
07/05 03:00      0.00     10.85       185     12.49     12.41
07/05 04:00      0.00     10.75       169     12.49     12.41
07/05 05:00      0.00     10.73       166     12.49     12.41
07/05 06:00      0.00     10.64       152     12.49     12.41
07/05 07:00      0.00     10.67       157     12.49     12.41
07/05 08:00      0.00     10.62       149     12.57     12.41
07/05 09:00      0.00     10.56       141     13.21     12.97
07/05 10:00      0.00     10.46       128     13.13     12.97
07/05 11:00      0.00     10.40       121     13.29     13.29
07/05 12:00      0.00     10.47       130     13.68     13.44
07/05 13:00      0.00     10.37       118     14.00     13.44
07/05 14:00      0.00     10.43       125     13.68     13.53
07/05 15:00      0.00     10.34       114     13.92     13.53
07/05 16:00      0.00     10.35       115     13.44     13.37
07/05 17:00      0.00     10.36       117     13.29     13.05
07/05 18:00      0.00     10.30       110     13.13     13.05
07/05 19:00      0.00     10.28       108     12.89     12.81
07/05 20:00      0.00     10.31       111     12.73     12.65
07/05 21:00      0.00     10.31       111     12.65     12.65
07/05 22:00      0.00     10.30       110     12.65     12.65
07/05 23:00      0.00     10.29       109     12.65     12.57